createdAt,value
2019-05-07T00:01:19.806Z,6.57
2019-05-07T00:03:50.242Z,6.37
2019-05-07T00:06:22.917Z,7.67
2019-05-07T00:08:52.987Z,7.83
2019-05-07T00:11:23.420Z,7.83
2019-05-07T00:13:53.908Z,8.07
2019-05-07T00:16:24.341Z,8.43
2019-05-07T00:18:54.819Z,8.57
2019-05-07T00:21:25.312Z,8.83
2019-05-07T00:23:55.753Z,8.50
2019-05-07T00:26:26.232Z,8.83
2019-05-07T00:28:56.665Z,8.27
2019-05-07T00:31:27.144Z,9.07
2019-05-07T00:33:57.645Z,9.93
2019-05-07T00:36:42.717Z,9.33
2019-05-07T00:39:43.975Z,10.73
2019-05-07T00:42:22.026Z,9.97
2019-05-07T00:45:19.667Z,10.37
2019-05-07T00:47:42.676Z,9.87
2019-05-07T00:50:19.085Z,10.53
2019-05-07T00:52:49.670Z,9.83
2019-05-07T00:55:20.129Z,10.33
2019-05-07T00:57:52.493Z,10.57
2019-05-07T01:00:22.980Z,10.10
2019-05-07T01:02:53.468Z,8.93
2019-05-07T01:05:24.212Z,9.33
2019-05-07T01:07:54.691Z,9.20
2019-05-07T01:10:25.127Z,8.93
2019-05-07T01:12:55.612Z,8.37
2019-05-07T01:15:31.019Z,8.17
2019-05-07T01:17:58.232Z,7.97
2019-05-07T01:20:28.662Z,7.37
2019-05-07T01:22:59.097Z,7.50
2019-05-07T01:25:29.615Z,7.00
2019-05-07T01:28:02.463Z,7.40
2019-05-07T01:30:32.684Z,7.40
2019-05-07T01:33:09.521Z,7.50
2019-05-07T01:35:57.462Z,7.17
2019-05-07T01:38:27.944Z,6.93
2019-05-07T01:40:58.681Z,7.57
2019-05-07T01:43:29.143Z,8.73
2019-05-07T01:45:59.640Z,9.43
2019-05-07T01:48:32.213Z,10.50
2019-05-07T01:51:03.471Z,10.07
2019-05-07T01:53:33.998Z,10.87
2019-05-07T01:56:04.491Z,10.43
2019-05-07T01:58:35.035Z,9.60
2019-05-07T02:01:05.627Z,10.37
2019-05-07T02:04:03.809Z,9.47
2019-05-07T02:06:59.020Z,9.37
2019-05-07T02:09:35.581Z,9.13
2019-05-07T02:12:28.134Z,9.23
2019-05-07T02:14:58.583Z,7.57
2019-05-07T02:17:29.125Z,6.90
2019-05-07T02:19:59.632Z,6.63
2019-05-07T02:22:31.997Z,5.60
2019-05-07T02:25:03.317Z,5.90
2019-05-07T02:27:33.864Z,6.17
2019-05-07T02:30:04.840Z,5.97
2019-05-07T02:32:35.252Z,5.77
2019-05-07T02:35:06.195Z,6.17
2019-05-07T02:37:56.858Z,5.17
2019-05-07T02:40:34.161Z,5.40
2019-05-07T02:43:04.759Z,5.07
2019-05-07T02:46:22.402Z,4.70
2019-05-07T02:48:54.501Z,5.43
2019-05-07T02:51:33.402Z,5.50
2019-05-07T02:54:23.776Z,5.10
2019-05-07T02:56:53.427Z,4.53
2019-05-07T02:59:23.987Z,5.27
2019-05-07T03:01:54.626Z,4.10
2019-05-07T03:04:25.469Z,4.10
2019-05-07T03:06:56.063Z,4.07
2019-05-07T03:09:26.645Z,4.43
2019-05-07T03:11:57.579Z,4.60
2019-05-07T03:14:28.064Z,4.40
2019-05-07T03:16:59.012Z,4.33
2019-05-07T03:19:29.879Z,3.97
2019-05-07T03:22:04.048Z,4.10
2019-05-07T03:24:52.969Z,4.40
2019-05-07T03:27:23.873Z,4.20
2019-05-07T03:30:17.302Z,4.20
2019-05-07T03:32:58.196Z,3.50
2019-05-07T03:35:57.180Z,3.77
2019-05-07T03:38:27.726Z,3.70
2019-05-07T03:40:58.184Z,3.87
2019-05-07T03:43:28.719Z,3.40
2019-05-07T03:46:13.997Z,3.40
2019-05-07T03:48:44.702Z,3.40
2019-05-07T03:51:15.185Z,2.90
2019-05-07T03:53:45.630Z,3.20
2019-05-07T03:56:16.082Z,3.40
2019-05-07T03:58:46.528Z,3.37
2019-05-07T04:01:17.121Z,3.07
2019-05-07T04:03:47.560Z,2.80
2019-05-07T04:06:18.038Z,2.90
2019-05-07T04:08:48.517Z,3.10
2019-05-07T04:11:18.950Z,3.00
2019-05-07T04:13:49.389Z,2.87
2019-05-07T04:16:19.835Z,3.00
2019-05-07T04:18:52.872Z,3.00
2019-05-07T04:21:23.252Z,2.90
2019-05-07T04:24:13.627Z,2.83
2019-05-07T04:26:47.123Z,2.90
2019-05-07T04:29:17.915Z,2.67
2019-05-07T04:31:48.345Z,3.17
2019-05-07T04:34:24.225Z,2.90
2019-05-07T04:36:54.664Z,3.13
2019-05-07T04:39:25.155Z,3.37
2019-05-07T04:41:55.605Z,2.90
2019-05-07T04:44:26.131Z,3.00
2019-05-07T04:46:56.577Z,3.00
2019-05-07T04:49:27.092Z,2.60
2019-05-07T04:52:19.425Z,3.03
2019-05-07T04:54:52.719Z,2.90
2019-05-07T04:57:28.254Z,2.87
2019-05-07T05:00:02.936Z,3.00
2019-05-07T05:02:52.657Z,3.10
2019-05-07T05:05:23.844Z,2.77
2019-05-07T05:07:54.649Z,3.10
2019-05-07T05:10:25.423Z,2.80
2019-05-07T05:12:55.854Z,2.97
2019-05-07T05:15:26.617Z,2.73
2019-05-07T05:17:57.099Z,2.93
2019-05-07T05:20:52.562Z,2.90
2019-05-07T05:23:47.863Z,2.67
2019-05-07T05:26:18.347Z,2.93
2019-05-07T05:28:48.917Z,3.30
2019-05-07T05:31:19.508Z,3.00
2019-05-07T05:33:50.023Z,2.83
2019-05-07T05:36:22.169Z,3.20
2019-05-07T05:38:53.558Z,3.10
2019-05-07T05:41:25.545Z,3.00
2019-05-07T05:44:06.259Z,2.50
2019-05-07T05:46:36.800Z,2.60
2019-05-07T05:49:07.413Z,2.67
2019-05-07T05:52:09.049Z,2.30
2019-05-07T05:54:58.365Z,2.97
2019-05-07T05:57:48.213Z,2.60
2019-05-07T06:00:53.938Z,2.27
2019-05-07T06:03:43.087Z,2.50
2019-05-07T06:06:29.568Z,2.77
2019-05-07T06:09:21.933Z,1.93
2019-05-07T06:12:03.816Z,2.47
2019-05-07T06:14:43.363Z,2.20
2019-05-07T06:17:35.539Z,2.13
2019-05-07T06:20:34.844Z,2.50
2019-05-07T06:23:33.083Z,2.30
2019-05-07T06:26:05.159Z,2.03
2019-05-07T06:28:35.423Z,2.80
2019-05-07T06:31:06.021Z,2.93
2019-05-07T06:33:36.651Z,2.07
2019-05-07T06:36:07.117Z,2.13
2019-05-07T06:38:44.065Z,1.90
2019-05-07T06:41:41.753Z,1.87
2019-05-07T06:44:16.500Z,1.90
2019-05-07T06:46:50.013Z,1.70
2019-05-07T06:49:22.298Z,1.30
2019-05-07T06:51:52.985Z,1.57
2019-05-07T06:54:23.346Z,1.60
2019-05-07T06:56:53.729Z,1.93
2019-05-07T06:59:35.369Z,1.57
2019-05-07T07:02:36.928Z,2.03
2019-05-07T07:05:25.824Z,1.47
2019-05-07T07:08:05.299Z,1.70
2019-05-07T07:10:53.230Z,1.57
2019-05-07T07:13:24.568Z,1.47
2019-05-07T07:15:55.035Z,1.83
2019-05-07T07:18:25.564Z,1.50
2019-05-07T07:20:56.100Z,2.60
2019-05-07T07:23:26.479Z,1.70
2019-05-07T07:25:56.923Z,1.60
2019-05-07T07:28:27.426Z,1.60
2019-05-07T07:31:22.258Z,1.30
2019-05-07T07:33:52.701Z,1.80
2019-05-07T07:36:24.811Z,1.03
2019-05-07T07:38:55.227Z,1.30
2019-05-07T07:41:34.110Z,1.50
2019-05-07T07:44:04.748Z,1.53
2019-05-07T07:46:35.155Z,1.03
2019-05-07T07:49:11.014Z,1.30
2019-05-07T07:51:42.034Z,2.00
2019-05-07T07:54:10.358Z,1.40
2019-05-07T07:56:56.337Z,1.00
2019-05-07T07:59:44.206Z,1.23
2019-05-07T08:02:32.062Z,1.10
2019-05-07T08:05:02.174Z,1.87
2019-05-07T08:07:33.144Z,1.70
2019-05-07T08:10:03.793Z,1.23
2019-05-07T08:12:34.348Z,1.50
2019-05-07T08:15:16.752Z,1.20
2019-05-07T08:17:37.805Z,1.33
2019-05-07T08:20:08.958Z,1.60
2019-05-07T08:22:39.319Z,3.13
2019-05-07T08:25:12.349Z,1.37
2019-05-07T08:27:42.240Z,1.57
2019-05-07T08:30:16.180Z,1.53
2019-05-07T08:33:03.609Z,1.47
2019-05-07T08:35:44.261Z,1.37
2019-05-07T08:38:14.915Z,1.10
2019-05-07T08:40:48.965Z,1.37
2019-05-07T08:43:21.801Z,1.07
2019-05-07T08:46:12.017Z,1.30
2019-05-07T08:48:45.781Z,1.27
2019-05-07T08:51:16.285Z,1.17
2019-05-07T08:53:48.393Z,1.30
2019-05-07T08:56:22.450Z,1.20
2019-05-07T08:58:54.758Z,1.40
2019-05-07T09:01:27.221Z,1.33
2019-05-07T09:03:57.731Z,1.30
2019-05-07T09:06:34.003Z,1.33
2019-05-07T09:09:12.819Z,1.73
2019-05-07T09:11:42.827Z,1.30
2019-05-07T09:14:13.404Z,1.30
2019-05-07T09:16:43.941Z,1.17
2019-05-07T09:19:14.434Z,1.07
2019-05-07T09:21:44.855Z,1.30
2019-05-07T09:24:15.257Z,1.40
2019-05-07T09:26:52.350Z,1.07
2019-05-07T09:29:36.549Z,1.70
2019-05-07T09:32:29.000Z,1.20
2019-05-07T09:35:02.307Z,0.90
2019-05-07T09:37:33.291Z,1.20
2019-05-07T09:40:03.708Z,1.07
2019-05-07T09:42:35.315Z,1.57
2019-05-07T09:45:06.065Z,1.13
2019-05-07T09:47:37.402Z,1.10
2019-05-07T09:50:09.034Z,2.67
2019-05-07T09:52:39.583Z,1.30
2019-05-07T09:55:16.594Z,1.53
2019-05-07T09:57:43.028Z,2.73
2019-05-07T10:00:14.676Z,1.30
2019-05-07T10:02:47.474Z,1.20
2019-05-07T10:05:22.759Z,1.20
2019-05-07T10:07:53.576Z,1.20
2019-05-07T10:10:24.206Z,1.57
2019-05-07T10:13:03.985Z,2.93
2019-05-07T10:15:34.794Z,1.47
2019-05-07T10:18:15.747Z,1.60
2019-05-07T10:20:46.387Z,2.03
2019-05-07T10:23:23.389Z,1.33
2019-05-07T10:25:54.638Z,1.10
2019-05-07T10:28:25.415Z,1.67
2019-05-07T10:30:56.089Z,1.00
2019-05-07T10:33:26.757Z,1.10
2019-05-07T10:35:57.351Z,1.07
2019-05-07T10:38:28.042Z,1.37
2019-05-07T10:40:58.784Z,1.40
2019-05-07T10:43:29.472Z,1.37
2019-05-07T10:46:21.677Z,1.50
2019-05-07T10:49:05.057Z,1.50
2019-05-07T10:51:35.545Z,1.63
2019-05-07T10:54:06.558Z,1.50
2019-05-07T10:56:37.254Z,1.70
2019-05-07T10:59:07.958Z,1.40
2019-05-07T11:01:59.708Z,1.50
2019-05-07T11:04:40.290Z,2.30
2019-05-07T11:07:02.067Z,1.60
2019-05-07T11:09:32.949Z,1.50
2019-05-07T11:12:03.475Z,1.20
2019-05-07T11:14:34.038Z,1.57
2019-05-07T11:17:26.572Z,1.60
2019-05-07T11:19:57.286Z,1.80
2019-05-07T11:22:27.811Z,1.97
2019-05-07T11:24:58.340Z,2.00
2019-05-07T11:27:33.043Z,1.23
2019-05-07T11:30:03.871Z,1.50
2019-05-07T11:32:34.310Z,1.63
2019-05-07T11:35:05.042Z,2.13
2019-05-07T11:37:35.504Z,2.10
2019-05-07T11:40:06.331Z,3.47
2019-05-07T11:43:05.591Z,2.57
2019-05-07T11:46:02.091Z,5.70
2019-05-07T11:48:36.348Z,1.87
2019-05-07T11:51:25.083Z,1.80
2019-05-07T11:54:12.642Z,2.20
2019-05-07T11:56:43.463Z,1.90
2019-05-07T11:59:13.973Z,1.50
2019-05-07T12:01:48.314Z,2.20
2019-05-07T12:04:18.899Z,1.97
2019-05-07T12:06:49.340Z,2.47
2019-05-07T12:09:21.642Z,1.90
2019-05-07T12:11:52.170Z,2.10
2019-05-07T12:14:31.354Z,2.30
2019-05-07T12:16:55.354Z,2.50
2019-05-07T12:19:25.790Z,2.80
2019-05-07T12:21:56.302Z,3.40
2019-05-07T12:24:26.762Z,3.00
2019-05-07T12:26:57.388Z,3.83
2019-05-07T12:29:28.265Z,2.63
2019-05-07T12:32:16.269Z,2.90
2019-05-07T12:34:53.679Z,3.53
2019-05-07T12:37:24.138Z,2.90
2019-05-07T12:39:55.069Z,2.47
2019-05-07T12:42:25.702Z,2.93
2019-05-07T12:44:56.211Z,2.90
2019-05-07T12:47:26.739Z,3.10
2019-05-07T12:49:57.231Z,2.63
2019-05-07T12:52:33.451Z,3.10
2019-05-07T12:55:15.842Z,3.00
2019-05-07T12:57:55.063Z,3.70
2019-05-07T13:00:46.893Z,3.10
2019-05-07T13:03:24.518Z,4.27
2019-05-07T13:05:55.628Z,3.10
2019-05-07T13:08:29.350Z,3.30
2019-05-07T13:10:59.822Z,3.53
2019-05-07T13:13:35.032Z,3.20
2019-05-07T13:16:06.356Z,3.50
2019-05-07T13:18:36.819Z,3.97
2019-05-07T13:21:11.783Z,3.20
2019-05-07T13:23:42.158Z,3.70
2019-05-07T13:26:15.468Z,3.03
2019-05-07T13:28:47.945Z,3.07
2019-05-07T13:31:22.747Z,3.60
2019-05-07T13:33:54.461Z,3.60
2019-05-07T13:36:25.694Z,3.67
2019-05-07T13:39:03.741Z,3.50
2019-05-07T13:41:57.671Z,3.83
2019-05-07T13:44:52.092Z,4.17
2019-05-07T13:47:34.383Z,4.03
2019-05-07T13:50:05.498Z,4.87
2019-05-07T13:52:36.191Z,4.97
2019-05-07T13:55:07.479Z,4.03
2019-05-07T13:57:41.669Z,4.80
2019-05-07T14:00:21.771Z,6.87
2019-05-07T14:02:52.081Z,5.10
2019-05-07T14:05:24.272Z,4.53
2019-05-07T14:07:54.875Z,5.20
2019-05-07T14:10:26.156Z,4.80
2019-05-07T14:13:07.656Z,5.90
2019-05-07T14:15:35.390Z,7.43
2019-05-07T14:18:07.148Z,5.93
2019-05-07T14:20:37.674Z,5.40
2019-05-07T14:23:09.146Z,6.10
2019-05-07T14:25:41.840Z,5.50
2019-05-07T14:28:11.866Z,5.70
2019-05-07T14:30:42.384Z,5.90
2019-05-07T14:33:18.806Z,5.30
2019-05-07T14:36:07.312Z,5.17
2019-05-07T14:38:42.616Z,5.60
2019-05-07T14:41:13.185Z,9.03
2019-05-07T14:44:01.004Z,6.43
2019-05-07T14:46:44.598Z,5.83
2019-05-07T14:49:03.854Z,9.13
2019-05-07T14:51:34.402Z,6.70
2019-05-07T14:54:05.103Z,7.60
2019-05-07T14:56:35.875Z,6.53
2019-05-07T14:59:06.546Z,7.27
2019-05-07T15:01:37.030Z,6.77
2019-05-07T15:04:07.936Z,7.83
2019-05-07T15:06:38.488Z,8.50
2019-05-07T15:09:09.100Z,7.03
2019-05-07T15:11:39.685Z,7.17
2019-05-07T15:14:12.043Z,8.20
2019-05-07T15:16:42.876Z,8.00
2019-05-07T15:19:13.410Z,7.93
2019-05-07T15:21:43.983Z,7.90
2019-05-07T15:24:15.532Z,8.73
2019-05-07T15:26:47.715Z,8.03
2019-05-07T15:29:18.301Z,8.50
2019-05-07T15:32:00.044Z,8.33
2019-05-07T15:34:29.778Z,9.30
2019-05-07T15:37:01.667Z,8.87
2019-05-07T15:39:32.828Z,9.03
2019-05-07T15:42:03.581Z,8.43
2019-05-07T15:44:34.023Z,12.63
2019-05-07T15:47:09.350Z,9.50
2019-05-07T15:49:41.724Z,11.60
2019-05-07T15:52:18.117Z,10.40
2019-05-07T15:54:48.556Z,9.63
2019-05-07T15:57:24.157Z,10.10
2019-05-07T16:00:05.580Z,9.27
2019-05-07T16:02:39.667Z,8.20
2019-05-07T16:05:13.503Z,8.93
2019-05-07T16:07:45.390Z,8.80
2019-05-07T16:10:16.045Z,10.70
2019-05-07T16:12:46.663Z,8.63
2019-05-07T16:15:17.301Z,9.60
2019-05-07T16:17:53.596Z,11.43
2019-05-07T16:20:24.039Z,8.83
2019-05-07T16:23:10.855Z,8.60
2019-05-07T16:25:30.110Z,8.40
2019-05-07T16:28:02.134Z,8.50
2019-05-07T16:30:32.747Z,9.00
2019-05-07T16:33:03.236Z,8.90
2019-05-07T16:35:33.724Z,7.93
2019-05-07T16:38:04.568Z,8.23
2019-05-07T16:40:35.062Z,8.57
2019-05-07T16:43:05.507Z,9.40
2019-05-07T16:45:35.994Z,8.57
2019-05-07T16:48:06.486Z,9.50
2019-05-07T16:50:37.085Z,10.73
2019-05-07T16:53:07.582Z,9.20
2019-05-07T16:55:38.028Z,9.87
2019-05-07T16:58:25.322Z,10.10
2019-05-07T17:01:00.176Z,9.47
2019-05-07T17:03:36.468Z,10.20
2019-05-07T17:06:06.917Z,10.13
2019-05-07T17:08:51.832Z,9.33
2019-05-07T17:11:22.698Z,9.53
2019-05-07T17:13:53.222Z,10.30
2019-05-07T17:16:24.046Z,11.10
2019-05-07T17:18:54.546Z,10.00
2019-05-07T17:21:25.153Z,9.93
2019-05-07T17:23:55.741Z,10.23
2019-05-07T17:26:26.213Z,9.43
2019-05-07T17:28:56.662Z,10.03
2019-05-07T17:31:27.156Z,9.70
2019-05-07T17:33:57.642Z,9.20
2019-05-07T17:36:28.149Z,9.37
2019-05-07T17:38:58.669Z,8.73
2019-05-07T17:41:29.242Z,9.83
2019-05-07T17:43:59.708Z,9.47
2019-05-07T17:46:32.160Z,9.60
2019-05-07T17:49:02.623Z,9.60
2019-05-07T17:51:44.507Z,10.27
2019-05-07T17:54:15.524Z,10.17
2019-05-07T17:56:45.986Z,10.43
2019-05-07T17:59:16.479Z,10.53
2019-05-07T18:01:57.957Z,10.63
2019-05-07T18:04:28.942Z,10.73
2019-05-07T18:07:00.571Z,10.50
2019-05-07T18:09:31.977Z,10.70
2019-05-07T18:12:02.447Z,11.17
2019-05-07T18:14:32.902Z,11.13
2019-05-07T18:17:33.502Z,11.03
2019-05-07T18:20:03.642Z,11.00
2019-05-07T18:22:34.290Z,10.20
2019-05-07T18:25:05.033Z,10.10
2019-05-07T18:27:35.634Z,11.17
2019-05-07T18:30:06.731Z,11.03
2019-05-07T18:32:42.686Z,10.93
2019-05-07T18:35:13.346Z,11.20
2019-05-07T18:37:52.893Z,10.70
2019-05-07T18:40:23.741Z,11.27
2019-05-07T18:42:54.333Z,10.83
2019-05-07T18:45:24.900Z,10.73
2019-05-07T18:47:55.386Z,11.43
2019-05-07T18:50:25.897Z,11.90
2019-05-07T18:52:56.388Z,11.07
2019-05-07T18:55:26.876Z,11.17
2019-05-07T18:57:57.437Z,11.00
2019-05-07T19:00:31.967Z,10.20
2019-05-07T19:03:03.440Z,10.30
2019-05-07T19:05:34.194Z,9.80
2019-05-07T19:08:08.296Z,9.63
2019-05-07T19:10:37.119Z,9.23
2019-05-07T19:13:07.780Z,9.23
2019-05-07T19:15:38.257Z,9.10
2019-05-07T19:18:08.801Z,9.43
2019-05-07T19:20:39.298Z,9.33
2019-05-07T19:23:09.845Z,9.33
2019-05-07T19:25:42.059Z,8.80
2019-05-07T19:28:14.934Z,9.63
2019-05-07T19:30:44.792Z,9.00
2019-05-07T19:33:15.352Z,9.27
2019-05-07T19:35:45.845Z,9.50
2019-05-07T19:38:16.303Z,9.20
2019-05-07T19:40:46.890Z,9.47
2019-05-07T19:43:17.372Z,9.60
2019-05-07T19:45:47.819Z,9.27
2019-05-07T19:48:18.310Z,9.00
2019-05-07T19:50:48.848Z,9.23
2019-05-07T19:53:21.302Z,9.63
2019-05-07T19:56:06.893Z,9.70
2019-05-07T19:58:37.497Z,9.03
2019-05-07T20:01:09.360Z,9.90
2019-05-07T20:03:39.856Z,9.60
2019-05-07T20:06:12.684Z,9.47
2019-05-07T20:08:43.749Z,9.60
2019-05-07T20:11:22.426Z,9.97
2019-05-07T20:13:53.148Z,9.77
2019-05-07T20:16:23.632Z,9.00
2019-05-07T20:18:54.076Z,8.90
2019-05-07T20:21:24.688Z,9.20
2019-05-07T20:23:55.144Z,9.57
2019-05-07T20:26:25.638Z,9.57
2019-05-07T20:28:56.141Z,9.93
2019-05-07T20:31:26.735Z,9.70
2019-05-07T20:33:57.201Z,9.90
2019-05-07T20:36:27.705Z,9.83
2019-05-07T20:38:58.159Z,9.67
2019-05-07T20:41:28.649Z,11.63
2019-05-07T20:43:59.094Z,9.93
2019-05-07T20:46:31.748Z,9.90
2019-05-07T20:49:02.925Z,9.10
2019-05-07T20:51:33.600Z,10.03
2019-05-07T20:54:23.141Z,10.27
2019-05-07T20:56:58.788Z,9.77
2019-05-07T20:59:29.225Z,9.87
2019-05-07T21:01:59.713Z,10.00
2019-05-07T21:04:30.263Z,10.03
2019-05-07T21:07:03.772Z,9.73
2019-05-07T21:09:34.297Z,9.90
2019-05-07T21:12:04.846Z,10.67
2019-05-07T21:14:35.338Z,10.10
2019-05-07T21:17:05.819Z,9.83
2019-05-07T21:19:36.310Z,10.10
2019-05-07T21:22:06.795Z,10.33
2019-05-07T21:24:37.264Z,10.17
2019-05-07T21:27:07.771Z,10.07
2019-05-07T21:29:38.225Z,10.10
2019-05-07T21:32:08.684Z,10.23
2019-05-07T21:34:39.284Z,9.87
2019-05-07T21:37:09.745Z,9.80
2019-05-07T21:39:42.254Z,9.30
2019-05-07T21:42:14.292Z,10.47
2019-05-07T21:44:44.500Z,9.50
2019-05-07T21:47:14.957Z,10.07
2019-05-07T21:49:45.397Z,10.87
2019-05-07T21:52:15.892Z,10.70
2019-05-07T21:54:58.988Z,10.53
2019-05-07T21:57:39.744Z,10.40
2019-05-07T22:00:18.890Z,9.53
2019-05-07T22:02:49.437Z,10.67
2019-05-07T22:05:22.293Z,10.33
2019-05-07T22:07:54.361Z,10.60
2019-05-07T22:10:24.693Z,11.17
2019-05-07T22:12:55.185Z,10.47
2019-05-07T22:15:25.703Z,10.00
2019-05-07T22:17:56.201Z,10.03
2019-05-07T22:20:26.698Z,10.27
2019-05-07T22:22:57.200Z,10.87
2019-05-07T22:25:27.648Z,9.57
2019-05-07T22:27:58.141Z,9.93
2019-05-07T22:30:52.626Z,10.20
2019-05-07T22:33:31.224Z,10.27
2019-05-07T22:36:01.882Z,10.27
2019-05-07T22:38:32.444Z,9.43
2019-05-07T22:41:02.973Z,9.33
2019-05-07T22:43:33.463Z,9.73
2019-05-07T22:46:03.904Z,9.57
2019-05-07T22:48:34.379Z,9.93
2019-05-07T22:51:04.856Z,9.30
2019-05-07T22:53:35.301Z,9.93
2019-05-07T22:56:05.789Z,10.03
2019-05-07T22:58:43.517Z,9.70
2019-05-07T23:01:13.988Z,10.30
2019-05-07T23:03:44.493Z,10.77
2019-05-07T23:06:14.973Z,11.07
2019-05-07T23:08:45.413Z,11.10
2019-05-07T23:11:15.953Z,10.60
2019-05-07T23:13:46.443Z,10.10
2019-05-07T23:16:16.931Z,11.00
2019-05-07T23:18:47.377Z,10.23
2019-05-07T23:21:17.863Z,10.57
2019-05-07T23:23:48.323Z,10.83
2019-05-07T23:26:18.807Z,9.93
2019-05-07T23:28:49.288Z,10.17
2019-05-07T23:31:19.764Z,9.70
2019-05-07T23:33:52.190Z,10.43
2019-05-07T23:36:22.670Z,9.17
2019-05-07T23:38:53.130Z,10.10
2019-05-07T23:41:38.478Z,8.87
2019-05-07T23:44:14.027Z,8.80
2019-05-07T23:46:45.014Z,8.77
2019-05-07T23:49:15.624Z,8.63
2019-05-07T23:51:46.205Z,8.90
2019-05-07T23:54:16.675Z,8.63
2019-05-07T23:56:47.113Z,8.73
2019-05-07T23:59:17.586Z,8.90
